Main page
METAR-TAF:

METAR-TAF

Airports :

Bolzano, Italy

latitude: 46-28N, longitude: 011-20E, elevation: 262 m

Current weather observation

The report was made 18 minutes ago, at 18:50 UTC
Wind 2 kt from the Northeast
Temperature 11°C
Humidity 94%
Pressure 1028 hPa
Visibility 10 km or more
no clouds below 1500 m and no cumulonimbus

METAR: LIPB 131850Z 04002KT CAVOK 11/10 Q1028

Time: 20:08 (19:08 UTC)

Forecast

The report was made 2 hours and 8 minutes ago, at 17:00 UTC
Forecast valid from 13 at 18 UTC to 14 at 18 UTC
Wind 4 kt from variable directions
Visibility: 8000 m
Scattered clouds at a height of 4000 ft

TAF: LIPB 131700Z 1318/1418 VRB04KT 8000 SCT040

Weather observations and forecasts of more than 4000 airports (METAR and TAF reports).

The available stations are represented by yellow and red dots on the map.

Hover mouse over dot to see the name of the station.

Then click to see weather observations and forecasts.

To change the map : click on the green buttons with a black cross to zoom in, on the green button with a dash to zoom out, or on the green arrows for adjacent maps.


METAR-TAF: